Time;durP1;ratioP1;P1;durP2;ratioP2;P2;SDS_P1;SDS_P2;PMS_P1;PMS_P2;Temp;Humidity;BMP_temperature;BMP_pressure;BME280_temperature;BME280_humidity;BME280_pressure;Samples;Min_cycle;Max_cycle;Signal;HPM_P1;HPM_P2
2022/01/30 00:00:43;;;;;;;40.33;25.27;;;10.40;95.80;;;;;;5045970;28;20063;-73
2022/01/30 00:03:10;;;;;;;43.65;24.23;;;10.40;95.60;;;;;;5040936;28;20128;-74
2022/01/30 00:05:37;;;;;;;42.25;24.65;;;10.50;95.50;;;;;;5042917;28;20140;-74
2022/01/30 00:08:04;;;;;;;37.35;23.10;;;10.40;95.30;;;;;;5021161;28;20082;-74
2022/01/30 00:10:37;;;;;;;38.22;23.17;;;10.40;95.10;;;;;;5041952;28;20121;-72
2022/01/30 00:13:05;;;;;;;36.15;23.35;;;10.40;95.00;;;;;;5017016;28;20044;-73
2022/01/30 00:15:40;;;;;;;41.67;24.25;;;10.20;95.30;;;;;;5046660;28;20040;-74
2022/01/30 00:23:31;;;;;;;36.47;22.25;;;10.00;96.30;;;;;;5027297;28;20041;-75
2022/01/30 00:25:59;;;;;;;34.97;22.55;;;10.00;96.30;;;;;;5041630;28;20037;-72
2022/01/30 00:28:31;;;;;;;39.53;23.23;;;9.90;96.50;;;;;;5038250;28;20037;-73
2022/01/30 00:30:57;;;;;;;35.83;21.48;;;9.80;96.60;;;;;;5027964;28;20091;-75
2022/01/30 00:33:24;;;;;;;37.67;22.67;;;9.80;96.60;;;;;;5039020;28;20037;-73
2022/01/30 00:35:50;;;;;;;37.92;22.17;;;9.70;97.10;;;;;;5041549;28;20075;-75
2022/01/30 00:38:22;;;;;;;38.28;22.75;;;9.70;97.00;;;;;;5029170;28;20041;-75
2022/01/30 00:40:50;;;;;;;39.47;22.50;;;9.60;97.30;;;;;;5037854;28;20040;-74
2022/01/30 00:43:18;;;;;;;34.47;21.17;;;9.60;96.90;;;;;;5036354;28;20055;-74
2022/01/30 00:45:45;;;;;;;34.95;21.13;;;9.50;96.30;;;;;;5040381;28;20037;-76
2022/01/30 00:48:11;;;;;;;35.72;20.95;;;9.50;96.20;;;;;;5025266;28;20045;-73
2022/01/30 00:50:37;;;;;;;33.17;20.58;;;9.50;96.30;;;;;;5023851;28;20488;-74
2022/01/30 00:53:04;;;;;;;34.67;20.88;;;9.50;96.30;;;;;;5036353;28;20124;-75
2022/01/30 00:55:31;;;;;;;34.22;20.73;;;9.60;95.90;;;;;;5023891;28;20063;-75
2022/01/30 00:57:59;;;;;;;33.42;19.88;;;9.60;95.60;;;;;;5040957;28;20049;-74
2022/01/30 01:00:26;;;;;;;33.15;20.55;;;9.60;95.50;;;;;;5038644;28;20029;-74
2022/01/30 01:02:52;;;;;;;30.48;20.27;;;9.60;95.40;;;;;;5044189;28;20017;-72
2022/01/30 01:05:19;;;;;;;30.15;19.17;;;9.50;95.50;;;;;;5044733;28;20047;-74
2022/01/30 01:07:48;;;;;;;33.88;20.63;;;9.40;95.60;;;;;;5043188;28;20156;-72
2022/01/30 01:23:31;;;;;;;33.50;19.30;;;9.10;94.90;;;;;;5036427;28;20045;-74
2022/01/30 01:26:00;;;;;;;33.50;18.80;;;9.20;94.60;;;;;;5037895;28;20036;-74
2022/01/30 01:28:26;;;;;;;30.02;18.73;;;9.20;94.20;;;;;;5035738;28;20079;-73
2022/01/30 01:30:54;;;;;;;26.75;17.30;;;9.10;94.00;;;;;;5036589;28;20074;-74
2022/01/30 01:33:22;;;;;;;30.27;18.13;;;9.00;93.90;;;;;;5026457;28;20029;-74
2022/01/30 01:35:49;;;;;;;31.20;17.77;;;9.00;93.90;;;;;;5042760;28;20080;-75
2022/01/30 01:38:15;;;;;;;30.73;17.95;;;9.10;93.70;;;;;;5038165;28;20053;-75
2022/01/30 01:40:52;;;;;;;30.92;19.20;;;9.10;94.30;;;;;;5013795;28;20033;-74
2022/01/30 01:43:20;;;;;;;32.50;18.60;;;9.20;95.00;;;;;;5043221;28;20091;-78
2022/01/30 01:45:48;;;;;;;28.63;18.20;;;9.20;94.10;;;;;;5038320;28;20040;-73
2022/01/30 01:48:15;;;;;;;29.92;18.85;;;9.10;94.40;;;;;;5049535;28;20066;-73
2022/01/30 01:50:45;;;;;;;33.97;19.83;;;9.10;94.90;;;;;;5038216;28;20042;-76
2022/01/30 01:53:14;;;;;;;33.92;18.80;;;9.00;95.20;;;;;;5015998;28;20040;-74
2022/01/30 01:55:42;;;;;;;33.60;19.17;;;9.10;95.50;;;;;;5044063;28;20107;-74
2022/01/30 01:58:10;;;;;;;32.70;20.33;;;9.20;95.30;;;;;;5040649;28;20044;-76
2022/01/30 02:00:37;;;;;;;35.33;20.08;;;9.20;95.10;;;;;;5045844;28;20507;-75
2022/01/30 02:03:05;;;;;;;32.38;18.77;;;9.10;95.10;;;;;;5042062;28;20580;-73
2022/01/30 02:05:34;;;;;;;31.27;18.75;;;9.00;95.20;;;;;;5043015;28;20080;-76
2022/01/30 02:11:49;;;;;;;33.25;18.95;;;8.90;95.30;;;;;;5046412;28;20056;-75
2022/01/30 02:27:07;;;;;;;29.33;19.08;;;8.70;95.30;;;;;;5043450;28;20038;-79
2022/01/30 02:29:34;;;;;;;29.23;17.23;;;8.70;95.10;;;;;;5043831;28;20038;-76
2022/01/30 02:32:01;;;;;;;32.03;18.98;;;8.60;95.20;;;;;;5046732;28;20033;-72
2022/01/30 02:34:31;;;;;;;34.78;19.73;;;8.70;95.30;;;;;;5042698;28;20049;-75
2022/01/30 02:36:58;;;;;;;34.42;19.45;;;8.60;95.20;;;;;;5044674;28;20069;-74
2022/01/30 02:39:25;;;;;;;30.83;18.85;;;8.60;95.40;;;;;;5040223;28;20040;-76
2022/01/30 02:41:52;;;;;;;31.77;20.23;;;8.60;95.40;;;;;;5045645;28;20064;-74
2022/01/30 02:46:49;;;;;;;33.70;19.35;;;8.60;95.40;;;;;;5036508;28;20044;-74
2022/01/30 02:51:59;;;;;;;30.90;20.08;;;8.60;95.20;;;;;;5044749;28;20500;-76
2022/01/30 02:54:27;;;;;;;30.25;19.83;;;8.50;95.00;;;;;;5042641;28;20506;-73
2022/01/30 02:56:54;;;;;;;31.60;19.63;;;8.40;95.30;;;;;;5047408;28;20039;-77
2022/01/30 02:59:21;;;;;;;29.48;19.05;;;8.50;96.00;;;;;;5038078;28;20044;-74
2022/01/30 03:01:48;;;;;;;35.97;20.83;;;8.50;95.30;;;;;;5038379;28;20165;-77
2022/01/30 03:04:15;;;;;;;30.92;19.90;;;8.60;95.60;;;;;;5039887;28;20476;-74
2022/01/30 03:06:41;;;;;;;33.70;19.65;;;8.50;95.70;;;;;;5047877;28;20069;-78
2022/01/30 03:09:10;;;;;;;31.00;18.92;;;8.50;95.60;;;;;;5042235;28;20488;-72
2022/01/30 03:11:38;;;;;;;33.00;18.70;;;8.40;96.00;;;;;;5054513;28;20401;-74
2022/01/30 03:14:05;;;;;;;27.90;18.95;;;8.40;96.10;;;;;;5045456;28;20048;-74
2022/01/30 03:16:33;;;;;;;27.05;18.15;;;8.50;96.10;;;;;;5045295;28;20044;-72
2022/01/30 03:19:01;;;;;;;33.65;19.92;;;8.40;95.90;;;;;;5044447;28;20037;-73
2022/01/30 03:21:28;;;;;;;34.22;20.40;;;8.50;96.10;;;;;;5038826;28;20149;-74
2022/01/30 03:23:55;;;;;;;31.73;19.85;;;8.40;95.70;;;;;;5044417;28;20130;-73
2022/01/30 03:26:22;;;;;;;28.85;18.98;;;8.40;95.40;;;;;;5035356;28;20084;-74
2022/01/30 03:28:50;;;;;;;34.42;19.77;;;8.40;95.30;;;;;;5044980;28;20036;-74
2022/01/30 03:31:19;;;;;;;32.25;19.65;;;8.40;95.20;;;;;;5040979;28;20485;-74
2022/01/30 03:33:45;;;;;;;31.20;19.05;;;8.40;95.10;;;;;;5045477;28;20032;-73
2022/01/30 03:36:11;;;;;;;31.65;19.33;;;8.50;95.40;;;;;;5043862;28;20088;-72
2022/01/30 03:38:39;;;;;;;31.23;19.30;;;8.50;95.10;;;;;;5045555;28;20029;-74
2022/01/30 03:41:06;;;;;;;34.63;20.90;;;8.40;95.00;;;;;;5010384;28;20045;-74
2022/01/30 03:43:32;;;;;;;32.83;20.05;;;8.80;95.00;;;;;;5032486;28;20111;-73
2022/01/30 03:45:58;;;;;;;33.42;18.73;;;8.80;94.70;;;;;;5046139;28;20037;-73
2022/01/30 03:48:25;;;;;;;31.20;19.13;;;8.70;94.90;;;;;;5036857;28;21372;-72
2022/01/30 03:50:50;;;;;;;31.50;19.63;;;8.60;94.90;;;;;;5041618;28;20393;-77
2022/01/30 03:53:19;;;;;;;34.13;20.88;;;8.70;95.00;;;;;;5031148;28;20040;-73
2022/01/30 03:55:46;;;;;;;31.67;19.92;;;8.90;94.20;;;;;;5036472;28;20034;-76
2022/01/30 03:58:14;;;;;;;32.55;18.95;;;9.20;93.10;;;;;;5038445;28;20037;-75
2022/01/30 04:00:40;;;;;;;33.60;20.67;;;9.30;92.80;;;;;;5041847;28;20033;-74
2022/01/30 04:03:07;;;;;;;32.70;19.20;;;9.20;92.90;;;;;;5029096;28;20045;-74
2022/01/30 04:05:35;;;;;;;30.15;20.23;;;9.00;93.50;;;;;;5047730;28;20086;-76
2022/01/30 04:08:02;;;;;;;32.13;19.90;;;8.90;94.00;;;;;;5047903;28;20040;-75
2022/01/30 04:10:33;;;;;;;30.10;19.50;;;8.90;94.80;;;;;;5042429;28;20033;-73
2022/01/30 04:12:59;;;;;;;27.95;19.60;;;9.00;93.90;;;;;;5048016;28;20057;-73
2022/01/30 04:15:27;;;;;;;31.63;21.10;;;9.00;94.20;;;;;;5045677;28;20080;-76
2022/01/30 04:17:55;;;;;;;33.42;19.67;;;9.00;95.00;;;;;;5045901;28;20037;-76
2022/01/30 04:20:21;;;;;;;31.63;21.10;;;9.00;95.00;;;;;;5044610;28;20063;-74
2022/01/30 04:22:49;;;;;;;34.25;20.77;;;8.90;95.30;;;;;;5046127;28;20470;-75
2022/01/30 04:25:15;;;;;;;31.92;20.55;;;8.80;95.50;;;;;;5050410;28;20072;-75
2022/01/30 04:27:41;;;;;;;33.45;20.13;;;8.80;95.70;;;;;;5048049;28;20074;-75
2022/01/30 04:30:10;;;;;;;30.63;20.10;;;8.80;95.30;;;;;;5022883;28;20123;-74
2022/01/30 04:32:41;;;;;;;33.00;20.45;;;8.90;95.10;;;;;;5038783;28;20089;-73
2022/01/30 04:35:14;;;;;;;32.83;18.88;;;8.70;95.10;;;;;;5035907;28;20060;-74
2022/01/30 04:37:58;;;;;;;29.77;19.30;;;8.80;94.50;;;;;;5040627;28;20121;-72
2022/01/30 05:03:25;;;;;;;25.25;16.20;;;8.90;93.40;;;;;;5041597;28;20041;-74
2022/01/30 05:08:23;;;;;;;25.42;15.68;;;9.60;92.20;;;;;;5041412;28;20051;-76
2022/01/30 05:10:52;;;;;;;26.00;16.55;;;9.90;91.80;;;;;;5040100;28;20047;-73
2022/01/30 05:13:22;;;;;;;24.85;16.60;;;9.80;91.80;;;;;;5046711;28;20037;-76
2022/01/30 05:15:54;;;;;;;26.10;16.65;;;9.90;91.90;;;;;;5041682;28;20033;-74
2022/01/30 05:18:23;;;;;;;27.33;16.33;;;9.60;91.90;;;;;;5042184;28;20037;-73
2022/01/30 05:20:49;;;;;;;24.52;16.02;;;9.50;92.10;;;;;;5043132;28;20044;-74
2022/01/30 05:23:17;;;;;;;24.58;16.60;;;9.30;92.40;;;;;;5007528;28;20066;-76
2022/01/30 05:25:49;;;;;;;25.15;17.13;;;9.30;92.50;;;;;;5038436;28;20029;-72
2022/01/30 05:28:19;;;;;;;27.35;17.65;;;9.30;92.50;;;;;;5038934;28;20049;-75
2022/01/30 05:30:47;;;;;;;26.65;17.15;;;9.20;93.00;;;;;;5022565;28;20037;-73
2022/01/30 05:33:14;;;;;;;40.55;17.35;;;9.40;93.00;;;;;;5035055;28;20051;-75
2022/01/30 05:35:41;;;;;;;25.25;17.15;;;9.30;93.00;;;;;;5037896;28;20053;-77
2022/01/30 05:38:07;;;;;;;25.70;16.40;;;9.30;92.90;;;;;;5052737;28;20543;-77
2022/01/30 05:40:35;;;;;;;26.08;17.95;;;9.20;93.20;;;;;;5052305;28;20032;-75
2022/01/30 05:43:03;;;;;;;29.65;18.17;;;9.00;93.60;;;;;;5043906;28;20029;-74
2022/01/30 05:45:43;;;;;;;28.23;18.17;;;9.00;93.90;;;;;;5025074;28;20710;-76
2022/01/30 05:48:15;;;;;;;28.15;17.90;;;9.00;93.90;;;;;;5029203;28;20030;-73
2022/01/30 05:50:43;;;;;;;29.50;18.75;;;8.90;94.40;;;;;;5040602;28;20401;-74
2022/01/30 05:53:10;;;;;;;30.73;18.40;;;8.90;94.70;;;;;;5036330;28;20034;-74
2022/01/30 05:55:36;;;;;;;27.65;18.00;;;8.90;94.30;;;;;;5043184;28;20109;-74
2022/01/30 05:58:03;;;;;;;27.17;19.05;;;8.80;94.50;;;;;;5045176;28;20040;-73
2022/01/30 06:00:29;;;;;;;30.67;18.08;;;8.80;94.40;;;;;;5037857;28;20029;-73
2022/01/30 06:03:11;;;;;;;29.65;19.45;;;8.70;94.30;;;;;;5013788;28;20409;-71
2022/01/30 06:05:38;;;;;;;29.85;18.10;;;8.70;94.40;;;;;;5039179;28;20055;-73
2022/01/30 06:08:14;;;;;;;26.70;18.30;;;8.80;94.00;;;;;;5044073;28;20981;-73
2022/01/30 06:10:40;;;;;;;30.05;18.33;;;8.60;94.70;;;;;;5036015;28;20049;-73
2022/01/30 06:13:07;;;;;;;30.38;19.38;;;8.60;94.80;;;;;;5047450;28;20690;-74
2022/01/30 06:15:36;;;;;;;36.20;19.98;;;8.50;95.10;;;;;;5044636;28;20416;-73
2022/01/30 06:18:04;;;;;;;30.77;20.35;;;8.40;95.00;;;;;;5038451;28;20118;-73
2022/01/30 06:20:31;;;;;;;34.38;20.20;;;8.30;95.40;;;;;;5017016;28;20064;-74
2022/01/30 06:22:58;;;;;;;28.50;18.02;;;8.20;95.40;;;;;;5039338;28;20059;-73
2022/01/30 06:25:26;;;;;;;26.40;18.63;;;8.10;95.40;;;;;;5033578;28;20064;-76
2022/01/30 06:27:52;;;;;;;31.20;18.02;;;8.10;95.40;;;;;;5042403;28;20108;-73
2022/01/30 06:30:21;;;;;;;26.85;17.58;;;8.10;95.60;;;;;;5042996;28;20134;-76
2022/01/30 06:32:49;;;;;;;28.30;17.83;;;8.20;95.60;;;;;;5037653;28;20041;-73
2022/01/30 06:35:15;;;;;;;30.73;17.65;;;8.30;95.70;;;;;;5023739;28;20117;-74
2022/01/30 06:37:41;;;;;;;28.50;18.13;;;8.30;95.70;;;;;;5033826;28;20044;-75
2022/01/30 06:40:08;;;;;;;29.05;18.73;;;8.20;95.80;;;;;;5033131;28;20048;-74
2022/01/30 06:42:34;;;;;;;29.67;17.67;;;8.10;96.10;;;;;;5040047;28;20113;-74
2022/01/30 06:45:03;;;;;;;33.47;18.77;;;8.00;96.40;;;;;;5042514;28;20393;-75
2022/01/30 06:47:30;;;;;;;29.00;17.70;;;7.90;96.50;;;;;;5021682;28;20040;-77
2022/01/30 06:49:57;;;;;;;27.35;17.33;;;7.90;96.40;;;;;;5038030;28;20044;-74
2022/01/30 06:52:23;;;;;;;27.10;17.27;;;8.00;96.80;;;;;;5036182;28;20048;-77
2022/01/30 06:54:49;;;;;;;31.05;17.00;;;7.90;96.60;;;;;;5026361;28;20037;-74
2022/01/30 06:57:15;;;;;;;27.15;17.33;;;7.80;96.60;;;;;;5036863;28;20039;-72
2022/01/30 06:59:43;;;;;;;28.45;18.88;;;7.90;96.70;;;;;;5043554;28;20041;-73
2022/01/30 07:02:10;;;;;;;31.70;18.13;;;7.80;96.60;;;;;;5041992;28;20033;-73
2022/01/30 07:04:36;;;;;;;27.83;17.92;;;7.80;96.60;;;;;;5048026;28;20539;-76
2022/01/30 07:07:05;;;;;;;27.95;17.98;;;7.80;96.70;;;;;;5057036;28;20390;-73
2022/01/30 07:09:32;;;;;;;25.88;16.80;;;7.90;96.50;;;;;;5024475;28;20034;-72
2022/01/30 07:12:01;;;;;;;31.92;17.20;;;7.90;96.10;;;;;;5041591;28;20476;-76
2022/01/30 07:14:29;;;;;;;25.75;16.48;;;7.90;95.80;;;;;;5041129;28;20087;-76
2022/01/30 07:16:55;;;;;;;29.42;15.77;;;7.80;95.40;;;;;;5039711;28;20033;-73
2022/01/30 07:19:21;;;;;;;24.13;16.20;;;7.90;94.70;;;;;;5038369;28;20167;-76
2022/01/30 07:21:49;;;;;;;28.83;16.95;;;8.20;94.60;;;;;;5048508;28;20040;-77
2022/01/30 07:24:15;;;;;;;26.95;15.38;;;8.20;94.00;;;;;;5039133;28;20124;-75
2022/01/30 07:26:41;;;;;;;27.13;16.45;;;8.30;93.80;;;;;;5010970;28;20753;-75
2022/01/30 07:29:08;;;;;;;24.27;15.45;;;8.40;93.50;;;;;;5040281;28;20046;-74
2022/01/30 07:31:34;;;;;;;23.85;15.25;;;8.60;93.00;;;;;;5036821;28;20041;-78
2022/01/30 07:34:01;;;;;;;26.75;16.67;;;8.70;93.20;;;;;;5043963;28;20156;-73
2022/01/30 07:36:28;;;;;;;26.80;16.65;;;8.70;93.40;;;;;;5048520;28;20114;-75
2022/01/30 07:38:54;;;;;;;22.83;14.77;;;8.80;93.50;;;;;;5043128;28;20036;-74
2022/01/30 07:41:21;;;;;;;25.67;14.73;;;8.80;93.50;;;;;;5038010;28;20038;-73
2022/01/30 07:43:48;;;;;;;24.95;16.50;;;8.80;93.20;;;;;;5046392;28;20436;-78
2022/01/30 07:46:15;;;;;;;29.48;16.05;;;9.30;92.90;;;;;;5045559;28;20032;-74
2022/01/30 07:48:42;;;;;;;25.08;17.25;;;9.50;93.00;;;;;;5042489;28;20446;-76
2022/01/30 07:51:08;;;;;;;24.17;16.08;;;9.50;92.90;;;;;;5058739;28;20412;-76
2022/01/30 07:53:35;;;;;;;26.98;17.73;;;9.70;92.30;;;;;;5041294;28;20040;-74
2022/01/30 07:56:01;;;;;;;27.33;17.88;;;9.80;92.60;;;;;;5039111;28;20445;-74
2022/01/30 07:58:28;;;;;;;27.85;16.65;;;9.70;92.50;;;;;;5040428;28;21084;-76
2022/01/30 08:00:56;;;;;;;23.38;16.23;;;9.70;92.50;;;;;;5048207;28;20041;-74
2022/01/30 08:03:22;;;;;;;28.25;16.95;;;9.80;92.30;;;;;;5045763;28;20048;-76
2022/01/30 08:05:49;;;;;;;25.58;16.85;;;9.80;92.20;;;;;;5042853;28;20047;-74
2022/01/30 08:08:16;;;;;;;24.60;16.38;;;9.80;92.10;;;;;;5043548;28;20037;-76
2022/01/30 08:10:43;;;;;;;24.48;15.95;;;9.80;92.00;;;;;;5043271;28;20038;-76
2022/01/30 08:13:09;;;;;;;23.52;14.90;;;9.80;91.80;;;;;;5047690;28;20471;-76
2022/01/30 08:15:37;;;;;;;23.48;15.30;;;10.00;91.40;;;;;;5040978;28;20033;-76
2022/01/30 08:18:03;;;;;;;24.08;15.90;;;10.20;91.40;;;;;;5029496;28;20102;-73
2022/01/30 08:20:29;;;;;;;25.42;16.08;;;10.20;91.30;;;;;;5029724;28;20506;-75
2022/01/30 08:22:55;;;;;;;28.35;16.02;;;10.30;91.20;;;;;;5022187;28;20116;-75
2022/01/30 08:25:24;;;;;;;23.02;15.75;;;10.30;91.40;;;;;;5027572;28;20053;-77
2022/01/30 08:27:52;;;;;;;24.75;16.00;;;10.40;91.00;;;;;;5036693;28;20158;-75
2022/01/30 08:30:17;;;;;;;26.25;16.40;;;10.50;90.80;;;;;;5037699;28;20034;-75
2022/01/30 08:32:50;;;;;;;26.35;15.35;;;10.70;90.70;;;;;;5044151;28;20048;-75
2022/01/30 08:35:18;;;;;;;22.98;15.57;;;11.80;90.60;;;;;;5038395;28;20085;-75
2022/01/30 08:37:45;;;;;;;22.05;15.18;;;14.20;88.30;;;;;;5041781;28;20029;-76
2022/01/30 08:40:17;;;;;;;23.45;16.60;;;16.00;83.80;;;;;;5042443;28;20453;-76
2022/01/30 08:42:46;;;;;;;19.38;14.65;;;17.40;80.60;;;;;;5042953;28;20618;-74
2022/01/30 08:45:14;;;;;;;21.75;15.15;;;18.20;77.80;;;;;;5034842;28;20041;-75
2022/01/30 08:47:44;;;;;;;24.90;16.33;;;18.40;75.60;;;;;;5038486;28;20041;-75
2022/01/30 08:50:13;;;;;;;22.80;15.27;;;19.10;74.10;;;;;;5048219;28;20056;-73
2022/01/30 08:52:39;;;;;;;21.98;15.27;;;19.20;71.20;;;;;;5033028;28;20543;-73
2022/01/30 08:55:10;;;;;;;24.83;16.42;;;19.90;71.40;;;;;;5042082;28;20171;-76
2022/01/30 08:57:37;;;;;;;28.55;19.48;;;20.10;70.50;;;;;;5044930;28;20124;-78
2022/01/30 09:00:07;;;;;;;25.83;17.90;;;18.90;70.60;;;;;;5039573;28;20052;-75
2022/01/30 09:02:35;;;;;;;21.80;17.60;;;19.80;72.20;;;;;;5039996;28;20048;-75
2022/01/30 09:05:01;;;;;;;24.17;18.10;;;20.00;70.80;;;;;;5044961;28;20047;-74
2022/01/30 09:07:27;;;;;;;25.70;20.00;;;20.20;70.90;;;;;;5036924;28;20452;-76
2022/01/30 09:09:54;;;;;;;25.33;19.35;;;20.50;70.10;;;;;;5047566;28;20029;-76
2022/01/30 09:12:20;;;;;;;28.48;21.55;;;21.30;70.00;;;;;;5047268;28;20099;-75
2022/01/30 09:14:46;;;;;;;26.95;19.65;;;21.50;69.20;;;;;;5030509;28;20084;-75
2022/01/30 09:17:14;;;;;;;26.35;20.98;;;21.70;68.90;;;;;;5035007;28;20655;-77
2022/01/30 09:19:44;;;;;;;25.73;20.77;;;21.30;68.90;;;;;;5042377;28;20439;-73
2022/01/30 09:22:12;;;;;;;30.42;21.42;;;20.80;69.50;;;;;;5039752;28;20127;-76
2022/01/30 09:24:39;;;;;;;29.50;21.83;;;20.00;69.90;;;;;;5041895;28;20099;-74
2022/01/30 09:27:07;;;;;;;23.58;17.85;;;19.30;70.60;;;;;;5041502;28;20496;-77
2022/01/30 09:29:35;;;;;;;27.27;19.58;;;18.70;69.20;;;;;;5042334;28;20045;-78
2022/01/30 09:32:06;;;;;;;24.73;18.15;;;18.00;70.50;;;;;;5026739;28;20148;-73
2022/01/30 09:34:34;;;;;;;24.88;17.80;;;17.30;70.30;;;;;;5016262;28;20076;-77
2022/01/30 09:37:01;;;;;;;25.73;19.30;;;16.80;70.90;;;;;;5042810;28;20053;-73
2022/01/30 09:39:28;;;;;;;28.02;19.73;;;16.70;72.00;;;;;;5044737;28;20060;-76
2022/01/30 09:41:54;;;;;;;26.67;19.58;;;16.70;72.40;;;;;;5038825;28;20958;-72
2022/01/30 09:44:25;;;;;;;24.98;20.08;;;16.50;72.90;;;;;;5042414;28;20037;-76
2022/01/30 09:46:52;;;;;;;28.77;19.98;;;16.30;73.10;;;;;;5040982;28;20124;-77
2022/01/30 09:49:30;;;;;;;30.17;19.70;;;16.20;73.30;;;;;;5038442;28;20499;-72
2022/01/30 09:51:56;;;;;;;29.48;20.33;;;16.40;73.10;;;;;;5038277;28;20038;-75
2022/01/30 09:54:23;;;;;;;30.88;20.00;;;16.70;73.10;;;;;;5039831;28;20512;-75
2022/01/30 09:56:49;;;;;;;26.60;18.30;;;17.20;72.40;;;;;;5021819;28;20068;-75
2022/01/30 09:59:16;;;;;;;23.42;17.88;;;17.40;71.00;;;;;;5024398;28;20041;-76
2022/01/30 10:01:42;;;;;;;25.27;18.73;;;17.60;69.90;;;;;;5041381;28;20452;-73
2022/01/30 10:04:08;;;;;;;26.58;19.27;;;18.10;70.20;;;;;;5017907;28;20075;-74
2022/01/30 10:06:56;;;;;;;26.00;19.25;;;18.20;69.30;;;;;;5036670;28;20045;-76
2022/01/30 10:09:30;;;;;;;25.00;19.70;;;18.40;69.60;;;;;;5032837;28;20140;-77
2022/01/30 10:12:16;;;;;;;27.27;19.27;;;18.30;69.50;;;;;;5031209;28;20044;-77
2022/01/30 10:15:04;;;;;;;27.35;19.70;;;18.20;68.80;;;;;;5017977;28;20064;-77
2022/01/30 10:17:35;;;;;;;28.17;18.95;;;18.20;68.00;;;;;;5028750;28;20091;-75
2022/01/30 10:20:11;;;;;;;25.20;18.25;;;18.60;69.10;;;;;;5043859;28;20038;-75
2022/01/30 10:22:48;;;;;;;21.45;17.95;;;19.00;68.10;;;;;;5040178;28;20171;-75
2022/01/30 10:25:25;;;;;;;27.75;20.17;;;19.40;68.10;;;;;;5039259;28;20152;-73
2022/01/30 10:28:15;;;;;;;28.02;21.15;;;19.60;67.50;;;;;;5041240;28;20033;-76
2022/01/30 10:30:55;;;;;;;27.13;19.58;;;19.80;67.60;;;;;;5042639;28;20033;-78
2022/01/30 10:33:50;;;;;;;25.27;19.38;;;19.90;67.00;;;;;;5044626;28;20562;-73
2022/01/30 10:36:22;;;;;;;26.48;19.58;;;19.90;66.80;;;;;;4971053;28;20041;-74
2022/01/30 10:38:59;;;;;;;;;;;20.00;66.90;;;;;;5043419;28;20058;-74
2022/01/30 10:41:38;;;;;;;33.33;20.92;;;19.40;66.50;;;;;;5017429;28;19948;-77
2022/01/30 10:44:07;;;;;;;26.65;20.55;;;19.70;66.90;;;;;;5025581;28;20118;-75
2022/01/30 10:46:47;;;;;;;26.83;20.83;;;19.80;66.80;;;;;;5046665;28;20065;-76
2022/01/30 10:49:19;;;;;;;25.73;21.90;;;20.40;66.70;;;;;;5066764;28;20089;-77
2022/01/30 10:52:02;;;;;;;30.05;21.60;;;20.40;66.40;;;;;;5057265;28;20150;-75
2022/01/30 10:54:35;;;;;;;25.02;20.27;;;20.50;66.60;;;;;;5042361;28;20045;-75
2022/01/30 10:57:07;;;;;;;28.17;19.48;;;20.70;66.10;;;;;;5048577;28;20063;-77
2022/01/30 10:59:35;;;;;;;34.60;20.80;;;20.50;65.00;;;;;;5066184;28;20396;-75
2022/01/30 11:02:21;;;;;;;24.48;19.23;;;20.70;65.50;;;;;;4992658;28;20078;-78
2022/01/30 11:04:50;;;;;;;25.17;20.08;;;20.60;64.30;;;;;;5036032;28;20037;-76
2022/01/30 11:07:27;;;;;;;26.77;19.63;;;20.40;64.90;;;;;;5047143;28;20049;-75
2022/01/30 11:10:01;;;;;;;25.02;19.10;;;20.60;65.30;;;;;;5049114;28;20033;-78
2022/01/30 11:12:43;;;;;;;23.38;18.90;;;20.60;64.60;;;;;;5052984;28;20041;-75
2022/01/30 11:15:21;;;;;;;26.23;20.38;;;21.00;64.70;;;;;;5053996;28;20064;-73
2022/01/30 11:17:49;;;;;;;26.20;19.77;;;21.40;64.20;;;;;;5053401;28;20045;-75
2022/01/30 11:20:15;;;;;;;25.88;20.48;;;21.80;63.70;;;;;;5052010;28;20029;-75
2022/01/30 11:22:47;;;;;;;25.50;20.10;;;22.10;63.20;;;;;;5018816;28;20572;-74
2022/01/30 11:25:16;;;;;;;21.90;19.05;;;22.30;63.00;;;;;;5022375;28;20064;-76
2022/01/30 11:27:46;;;;;;;25.05;20.15;;;22.50;62.80;;;;;;5044587;28;20044;-77
2022/01/30 11:30:15;;;;;;;29.63;21.15;;;22.60;62.20;;;;;;5052557;28;20041;-76
2022/01/30 11:32:43;;;;;;;26.40;19.90;;;22.40;62.40;;;;;;5049607;28;20059;-77
2022/01/30 11:35:10;;;;;;;32.35;20.13;;;22.50;61.40;;;;;;5034236;28;20048;-74
2022/01/30 11:37:38;;;;;;;25.00;19.63;;;22.40;62.10;;;;;;5047522;28;20045;-78
2022/01/30 11:40:18;;;;;;;28.10;19.08;;;21.90;62.10;;;;;;5047730;28;20041;-76
2022/01/30 11:42:48;;;;;;;25.70;20.55;;;21.90;62.30;;;;;;5054474;28;20121;-74
2022/01/30 11:45:29;;;;;;;23.42;18.75;;;22.10;62.30;;;;;;5041100;28;20042;-74
2022/01/30 11:48:00;;;;;;;22.02;19.23;;;22.10;61.80;;;;;;5033934;28;20083;-74
2022/01/30 11:50:29;;;;;;;23.97;17.93;;;22.70;61.30;;;;;;5038608;28;20504;-77
2022/01/30 11:53:11;;;;;;;25.27;17.95;;;23.00;61.00;;;;;;5047800;28;20040;-79
2022/01/30 11:55:37;;;;;;;;;;;23.70;60.20;;;;;;5048091;28;20033;-76
2022/01/30 11:58:03;;;;;;;24.20;18.45;;;23.90;59.90;;;;;;5041942;28;19948;-74
2022/01/30 12:00:47;;;;;;;25.42;18.83;;;24.00;60.00;;;;;;5038233;28;20069;-75
2022/01/30 12:03:35;;;;;;;23.35;18.67;;;24.50;59.90;;;;;;5049743;28;20049;-76
2022/01/30 12:06:20;;;;;;;26.33;20.63;;;24.70;59.50;;;;;;5040172;28;20091;-77
2022/01/30 12:08:53;;;;;;;21.48;19.23;;;25.40;59.30;;;;;;5045079;28;20033;-77
2022/01/30 12:11:39;;;;;;;25.20;19.08;;;25.70;58.10;;;;;;5043513;28;20037;-77
2022/01/30 12:14:30;;;;;;;24.58;19.58;;;25.70;58.20;;;;;;5046627;28;20400;-77
2022/01/30 12:17:00;;;;;;;21.15;17.73;;;25.50;57.70;;;;;;5039853;28;20044;-78
2022/01/30 12:19:30;;;;;;;26.33;17.67;;;25.00;57.90;;;;;;5036371;28;20048;-78
2022/01/30 12:22:23;;;;;;;24.45;18.10;;;25.30;57.60;;;;;;5049155;28;20045;-76
2022/01/30 12:25:13;;;;;;;21.20;16.25;;;25.50;56.70;;;;;;5046458;28;20037;-76
2022/01/30 12:27:51;;;;;;;18.45;15.32;;;25.70;56.70;;;;;;5048752;28;20184;-77
2022/01/30 12:30:32;;;;;;;20.27;14.82;;;26.00;55.90;;;;;;5043837;28;20063;-77
2022/01/30 12:32:58;;;;;;;17.90;14.05;;;26.90;55.00;;;;;;5048608;28;20029;-77
2022/01/30 12:35:25;;;;;;;18.67;13.85;;;26.80;54.70;;;;;;5024225;28;20041;-77
2022/01/30 12:37:51;;;;;;;18.10;14.98;;;26.70;54.30;;;;;;5049044;28;20046;-76
2022/01/30 12:40:20;;;;;;;18.48;12.73;;;26.50;53.80;;;;;;5045799;28;20049;-77
2022/01/30 12:42:46;;;;;;;17.95;13.35;;;26.70;52.70;;;;;;5038342;28;20045;-77
2022/01/30 12:45:14;;;;;;;13.30;11.23;;;26.70;51.80;;;;;;5026549;28;20834;-78
2022/01/30 12:47:59;;;;;;;12.60;10.40;;;27.10;52.20;;;;;;5037816;28;20488;-76
2022/01/30 12:50:33;;;;;;;16.00;8.63;;;27.00;52.10;;;;;;5021933;28;20059;-75
2022/01/30 12:53:01;;;;;;;10.98;8.15;;;27.20;50.30;;;;;;5027674;28;20033;-76
2022/01/30 12:55:27;;;;;;;10.27;7.38;;;27.00;49.80;;;;;;5024624;28;20696;-75
2022/01/30 12:57:55;;;;;;;12.20;7.03;;;27.30;50.50;;;;;;5023403;28;20048;-77
2022/01/30 13:00:22;;;;;;;9.68;7.55;;;27.20;49.20;;;;;;5026818;28;20057;-77
2022/01/30 13:02:59;;;;;;;8.50;6.90;;;27.40;49.10;;;;;;5040503;28;20088;-75
2022/01/30 13:05:27;;;;;;;12.10;7.13;;;27.80;48.70;;;;;;5036775;28;20041;-79
2022/01/30 13:07:57;;;;;;;7.57;6.18;;;27.70;48.00;;;;;;5041585;28;20443;-78
2022/01/30 13:10:26;;;;;;;8.68;7.05;;;28.20;48.10;;;;;;5043423;28;20037;-79
2022/01/30 13:12:58;;;;;;;12.40;9.10;;;28.60;48.20;;;;;;5034500;28;20448;-81
2022/01/30 13:15:24;;;;;;;9.50;7.30;;;28.50;47.90;;;;;;5025174;28;20053;-76
2022/01/30 13:17:52;;;;;;;8.70;6.40;;;28.40;47.40;;;;;;5045214;28;20032;-80
2022/01/30 13:20:24;;;;;;;11.15;7.10;;;28.00;47.40;;;;;;5039274;28;20044;-79
2022/01/30 13:22:53;;;;;;;8.68;6.93;;;28.20;47.70;;;;;;5045174;28;20471;-76
2022/01/30 13:25:20;;;;;;;12.38;7.53;;;27.90;47.90;;;;;;5043574;28;20052;-75
2022/01/30 13:27:50;;;;;;;9.30;7.10;;;27.80;48.30;;;;;;5042980;28;20045;-77
2022/01/30 13:30:27;;;;;;;9.63;7.70;;;28.90;48.30;;;;;;5040291;28;20045;-79
2022/01/30 13:32:54;;;;;;;20.20;15.70;;;28.80;48.10;;;;;;5043975;28;20099;-81
2022/01/30 13:35:24;;;;;;;25.00;17.45;;;29.00;49.50;;;;;;5062820;28;20465;-76
2022/01/30 13:37:53;;;;;;;19.53;17.00;;;28.40;50.50;;;;;;5037841;28;20124;-75
2022/01/30 13:40:25;;;;;;;19.27;16.73;;;29.00;50.90;;;;;;5039881;28;20271;-76
2022/01/30 13:48:18;;;;;;;18.03;11.50;;;30.00;49.90;;;;;;5042410;28;20060;-76
2022/01/30 13:50:52;;;;;;;17.27;12.52;;;29.00;49.20;;;;;;5041472;28;20585;-75
2022/01/30 13:53:17;;;;;;;13.38;10.32;;;28.10;49.10;;;;;;5043129;28;20041;-76
2022/01/30 13:55:59;;;;;;;14.65;11.23;;;27.20;49.60;;;;;;5037198;28;20029;-76